Time,TemperatureF,DewpointF,PressureIn,WindDirection,WindDirectionDegrees,WindSpeedMPH,WindSpeedGustMPH,Humidity,HourlyPrecipIn,Conditions,Clouds,dailyrainin,SoftwareType,DateUTC
2013-05-23 00:03:00,55.6,55.6,30.01,ENE,66,0.0,0.0,100,0.00,,,0.00,WUHU216DAVISWMX,2013-05-23 04:03:00,
2013-05-23 00:08:00,55.5,55.5,30.01,ENE,66,0.0,0.0,100,0.00,,,0.00,WUHU216DAVISWMX,2013-05-23 04:08:00,
2013-05-23 00:13:00,55.5,55.5,30.00,ENE,66,0.0,0.0,100,0.00,,,0.00,WUHU216DAVISWMX,2013-05-23 04:13:00,
2013-05-23 00:18:00,55.4,55.4,30.00,ENE,66,0.0,0.0,100,0.00,,,0.00,WUHU216DAVISWMX,2013-05-23 04:18:00,
2013-05-23 00:23:00,55.3,55.3,30.00,ENE,66,0.0,0.0,100,0.00,,,0.00,WUHU216DAVISWMX,2013-05-23 04:23:00,
2013-05-23 00:28:00,55.3,55.3,30.00,ENE,66,0.0,0.0,100,0.00,,,0.00,WUHU216DAVISWMX,2013-05-23 04:28:00,
2013-05-23 00:33:00,55.3,55.3,30.00,ENE,66,0.0,0.0,100,0.00,,,0.00,WUHU216DAVISWMX,2013-05-23 04:33:00,
2013-05-23 00:38:00,55.3,55.3,30.00,ENE,66,0.0,0.0,100,0.00,,,0.00,WUHU216DAVISWMX,2013-05-23 04:38:00,
2013-05-23 00:43:00,55.3,55.3,29.99,ENE,66,0.0,0.0,100,0.00,,,0.00,WUHU216DAVISWMX,2013-05-23 04:43:00,
2013-05-23 00:48:00,55.3,55.3,29.99,ENE,66,0.0,0.0,100,0.00,,,0.00,WUHU216DAVISWMX,2013-05-23 04:48:00,
2013-05-23 00:53:00,55.4,55.4,29.99,ENE,66,0.0,0.0,100,0.00,,,0.00,WUHU216DAVISWMX,2013-05-23 04:53:00,
2013-05-23 00:58:00,55.3,55.3,29.99,ENE,66,0.0,0.0,100,0.00,,,0.00,WUHU216DAVISWMX,2013-05-23 04:58:00,
2013-05-23 01:03:00,55.3,55.3,29.99,ENE,66,0.0,0.0,100,0.00,,,0.00,WUHU216DAVISWMX,2013-05-23 05:03:00,
2013-05-23 01:08:00,55.3,55.3,29.99,ENE,66,0.0,0.0,100,0.00,,,0.00,WUHU216DAVISWMX,2013-05-23 05:08:00,
2013-05-23 01:13:00,55.3,55.3,29.99,ENE,66,0.0,0.0,100,0.00,,,0.00,WUHU216DAVISWMX,2013-05-23 05:13:00,
2013-05-23 01:18:00,55.4,55.4,29.99,ENE,66,0.0,0.0,100,0.00,,,0.00,WUHU216DAVISWMX,2013-05-23 05:18:00,
2013-05-23 01:23:00,55.4,55.4,29.99,ENE,66,0.0,0.0,100,0.00,,,0.00,WUHU216DAVISWMX,2013-05-23 05:23:00,
2013-05-23 01:28:00,55.2,55.2,29.99,ENE,66,0.0,0.0,100,0.00,,,0.00,WUHU216DAVISWMX,2013-05-23 05:28:00,
2013-05-23 01:33:00,55.1,55.1,30.00,ENE,66,0.0,0.0,100,0.00,,,0.00,WUHU216DAVISWMX,2013-05-23 05:33:00,
2013-05-23 01:38:00,55.2,55.2,29.99,ENE,66,0.0,0.0,100,0.00,,,0.00,WUHU216DAVISWMX,2013-05-23 05:38:00,
2013-05-23 01:43:00,55.1,55.1,30.00,ENE,66,0.0,0.0,100,0.00,,,0.00,WUHU216DAVISWMX,2013-05-23 05:43:00,
2013-05-23 01:48:00,55.2,55.2,30.00,ENE,66,0.0,0.0,100,0.00,,,0.00,WUHU216DAVISWMX,2013-05-23 05:48:00,
2013-05-23 01:53:00,55.2,55.2,29.99,ENE,66,0.0,0.0,100,0.00,,,0.00,WUHU216DAVISWMX,2013-05-23 05:53:00,
2013-05-23 01:58:00,55.2,55.2,29.99,ENE,66,0.0,0.0,100,0.00,,,0.00,WUHU216DAVISWMX,2013-05-23 05:58:00,
2013-05-23 02:03:00,55.1,55.1,29.99,ENE,66,0.0,0.0,100,0.00,,,0.00,WUHU216DAVISWMX,2013-05-23 06:03:00,
2013-05-23 02:08:00,55.3,55.3,29.99,ENE,66,0.0,0.0,100,0.00,,,0.00,WUHU216DAVISWMX,2013-05-23 06:08:00,
2013-05-23 02:13:00,55.2,55.2,29.99,ENE,66,0.0,0.0,100,0.01,,,0.01,WUHU216DAVISWMX,2013-05-23 06:13:00,
2013-05-23 02:18:00,55.2,55.2,29.98,ENE,66,0.0,0.0,100,0.01,,,0.01,WUHU216DAVISWMX,2013-05-23 06:18:00,
2013-05-23 02:23:00,55.2,55.2,29.98,ENE,66,0.0,0.0,100,0.01,,,0.01,WUHU216DAVISWMX,2013-05-23 06:23:00,
2013-05-23 02:28:00,55.2,55.2,29.98,ENE,66,0.0,0.0,100,0.01,,,0.01,WUHU216DAVISWMX,2013-05-23 06:28:00,
2013-05-23 02:33:00,55.2,55.2,29.98,ENE,66,0.0,0.0,100,0.01,,,0.01,WUHU216DAVISWMX,2013-05-23 06:33:00,
2013-05-23 02:38:00,55.2,55.2,29.97,ENE,66,0.0,0.0,100,0.01,,,0.01,WUHU216DAVISWMX,2013-05-23 06:38:00,
2013-05-23 02:43:00,55.1,55.1,29.97,ENE,66,0.0,0.0,100,0.01,,,0.01,WUHU216DAVISWMX,2013-05-23 06:43:00,
2013-05-23 02:48:00,55.1,55.1,29.97,ENE,66,0.0,0.0,100,0.01,,,0.01,WUHU216DAVISWMX,2013-05-23 06:48:00,
2013-05-23 02:53:00,55.2,55.2,29.97,ENE,66,0.0,0.0,100,0.01,,,0.01,WUHU216DAVISWMX,2013-05-23 06:53:00,
2013-05-23 02:58:00,55.1,55.1,29.97,ENE,66,0.0,0.0,100,0.01,,,0.01,WUHU216DAVISWMX,2013-05-23 06:58:00,
2013-05-23 03:03:00,55.1,55.1,29.96,ENE,66,0.0,0.0,100,0.01,,,0.01,WUHU216DAVISWMX,2013-05-23 07:03:00,
2013-05-23 03:08:00,55.1,55.1,29.96,ENE,66,0.0,0.0,100,0.01,,,0.01,WUHU216DAVISWMX,2013-05-23 07:08:00,
2013-05-23 03:13:00,55.0,55.0,29.97,ENE,66,0.0,0.0,100,0.00,,,0.01,WUHU216DAVISWMX,2013-05-23 07:13:00,
2013-05-23 03:18:00,55.0,55.0,29.96,ENE,66,0.0,0.0,100,0.00,,,0.01,WUHU216DAVISWMX,2013-05-23 07:18:00,
2013-05-23 03:23:00,55.0,55.0,29.96,ENE,66,0.0,0.0,100,0.00,,,0.01,WUHU216DAVISWMX,2013-05-23 07:23:00,
2013-05-23 03:28:00,55.0,55.0,29.96,ENE,66,0.0,0.0,100,0.00,,,0.01,WUHU216DAVISWMX,2013-05-23 07:28:00,
2013-05-23 03:33:00,55.0,55.0,29.96,ENE,66,0.0,0.0,100,0.00,,,0.01,WUHU216DAVISWMX,2013-05-23 07:33:00,
2013-05-23 03:38:00,54.9,54.9,29.96,ENE,66,0.0,0.0,100,0.00,,,0.01,WUHU216DAVISWMX,2013-05-23 07:38:00,
2013-05-23 03:43:00,55.0,55.0,29.96,ENE,66,0.0,0.0,100,0.00,,,0.01,WUHU216DAVISWMX,2013-05-23 07:43:00,
2013-05-23 03:48:00,54.9,54.9,29.96,ENE,66,0.0,0.0,100,0.00,,,0.01,WUHU216DAVISWMX,2013-05-23 07:48:00,
2013-05-23 03:53:00,55.0,55.0,29.95,ENE,66,0.0,0.0,100,0.00,,,0.01,WUHU216DAVISWMX,2013-05-23 07:53:00,
2013-05-23 03:58:00,55.0,55.0,29.95,ENE,66,0.0,0.0,100,0.00,,,0.01,WUHU216DAVISWMX,2013-05-23 07:58:00,
2013-05-23 04:03:00,55.0,55.0,29.96,ENE,66,0.0,0.0,100,0.00,,,0.01,WUHU216DAVISWMX,2013-05-23 08:03:00,
2013-05-23 04:08:00,55.0,55.0,29.96,ENE,66,0.0,0.0,100,0.00,,,0.01,WUHU216DAVISWMX,2013-05-23 08:08:00,
2013-05-23 04:13:00,55.0,55.0,29.95,ENE,66,0.0,0.0,100,0.00,,,0.01,WUHU216DAVISWMX,2013-05-23 08:13:00,
2013-05-23 04:18:00,55.0,55.0,29.96,ENE,66,0.0,0.0,100,0.00,,,0.01,WUHU216DAVISWMX,2013-05-23 08:18:00,
2013-05-23 04:23:00,54.9,54.9,29.96,ENE,66,0.0,0.0,100,0.00,,,0.01,WUHU216DAVISWMX,2013-05-23 08:23:00,
2013-05-23 04:28:00,54.9,54.9,29.95,ENE,66,0.0,0.0,100,0.00,,,0.01,WUHU216DAVISWMX,2013-05-23 08:28:00,
2013-05-23 04:33:00,54.9,54.9,29.96,ENE,66,0.0,0.0,100,0.00,,,0.01,WUHU216DAVISWMX,2013-05-23 08:33:00,
2013-05-23 04:38:00,54.9,54.9,29.96,ENE,66,0.0,0.0,100,0.00,,,0.01,WUHU216DAVISWMX,2013-05-23 08:38:00,
2013-05-23 04:43:00,54.9,54.9,29.96,ENE,66,0.0,0.0,100,0.00,,,0.01,WUHU216DAVISWMX,2013-05-23 08:43:00,
2013-05-23 04:48:00,54.9,54.9,29.96,ENE,66,0.0,0.0,100,0.00,,,0.01,WUHU216DAVISWMX,2013-05-23 08:48:00,
2013-05-23 04:53:00,54.9,54.9,29.96,ENE,66,0.0,0.0,100,0.00,,,0.01,WUHU216DAVISWMX,2013-05-23 08:53:00,
2013-05-23 04:58:00,54.9,54.9,29.96,ENE,66,0.0,0.0,100,0.00,,,0.01,WUHU216DAVISWMX,2013-05-23 08:58:00,
2013-05-23 05:03:00,54.9,54.9,29.96,ENE,66,0.0,0.0,100,0.00,,,0.01,WUHU216DAVISWMX,2013-05-23 09:03:00,
2013-05-23 05:08:00,54.9,54.9,29.96,ENE,66,0.0,0.0,100,0.00,,,0.01,WUHU216DAVISWMX,2013-05-23 09:08:00,
2013-05-23 05:13:00,54.8,54.8,29.96,ENE,66,0.0,0.0,100,0.00,,,0.01,WUHU216DAVISWMX,2013-05-23 09:13:00,
2013-05-23 05:18:00,54.9,54.9,29.96,ENE,66,0.0,0.0,100,0.00,,,0.01,WUHU216DAVISWMX,2013-05-23 09:18:00,
2013-05-23 05:23:00,54.9,54.9,29.96,ENE,66,0.0,0.0,100,0.00,,,0.01,WUHU216DAVISWMX,2013-05-23 09:23:00,
2013-05-23 05:28:00,54.9,54.9,29.96,ENE,66,0.0,0.0,100,0.00,,,0.01,WUHU216DAVISWMX,2013-05-23 09:28:00,
2013-05-23 05:33:00,54.9,54.9,29.96,ENE,66,0.0,0.0,100,0.00,,,0.01,WUHU216DAVISWMX,2013-05-23 09:33:00,
2013-05-23 05:38:00,54.9,54.9,29.98,ENE,66,0.0,0.0,100,0.00,,,0.01,WUHU216DAVISWMX,2013-05-23 09:38:00,
2013-05-23 05:43:00,55.0,55.0,29.97,ENE,66,0.0,0.0,100,0.00,,,0.01,WUHU216DAVISWMX,2013-05-23 09:43:00,
2013-05-23 05:48:00,55.0,55.0,29.97,ENE,66,0.0,0.0,100,0.00,,,0.01,WUHU216DAVISWMX,2013-05-23 09:48:00,
2013-05-23 05:53:00,55.0,55.0,29.98,ENE,66,0.0,0.0,100,0.00,,,0.01,WUHU216DAVISWMX,2013-05-23 09:53:00,
2013-05-23 05:58:00,55.0,55.0,29.98,ENE,66,0.0,0.0,100,0.00,,,0.01,WUHU216DAVISWMX,2013-05-23 09:58:00,
2013-05-23 06:03:00,55.0,55.0,29.98,ENE,66,0.0,0.0,100,0.00,,,0.01,WUHU216DAVISWMX,2013-05-23 10:03:00,
2013-05-23 06:08:00,55.0,55.0,29.98,ENE,66,0.0,0.0,100,0.00,,,0.01,WUHU216DAVISWMX,2013-05-23 10:08:00,
2013-05-23 06:13:00,55.0,55.0,29.98,ENE,66,0.0,0.0,100,0.00,,,0.01,WUHU216DAVISWMX,2013-05-23 10:13:00,
2013-05-23 06:18:00,55.1,55.1,29.98,ENE,66,0.0,0.0,100,0.00,,,0.01,WUHU216DAVISWMX,2013-05-23 10:18:00,
2013-05-23 06:23:00,55.2,55.2,29.98,ENE,66,0.0,0.0,100,0.00,,,0.01,WUHU216DAVISWMX,2013-05-23 10:23:00,
2013-05-23 06:28:00,55.2,55.2,29.98,ENE,66,0.0,0.0,100,0.00,,,0.01,WUHU216DAVISWMX,2013-05-23 10:28:00,
2013-05-23 06:33:00,55.3,55.3,29.99,ENE,66,0.0,0.0,100,0.00,,,0.01,WUHU216DAVISWMX,2013-05-23 10:33:00,
2013-05-23 06:38:00,55.3,55.3,29.98,ENE,66,0.0,0.0,100,0.00,,,0.01,WUHU216DAVISWMX,2013-05-23 10:38:00,
2013-05-23 06:43:00,55.3,55.3,29.98,ENE,66,0.0,0.0,100,0.00,,,0.01,WUHU216DAVISWMX,2013-05-23 10:43:00,
2013-05-23 06:48:00,55.4,55.4,29.98,ENE,66,0.0,0.0,100,0.00,,,0.01,WUHU216DAVISWMX,2013-05-23 10:48:00,
2013-05-23 06:53:00,55.5,55.5,29.98,ENE,66,0.0,0.0,100,0.00,,,0.01,WUHU216DAVISWMX,2013-05-23 10:53:00,
2013-05-23 06:58:00,55.6,55.6,29.98,ENE,66,0.0,0.0,100,0.00,,,0.01,WUHU216DAVISWMX,2013-05-23 10:58:00,
2013-05-23 07:03:00,55.8,55.8,29.98,ENE,66,0.0,1.0,100,0.01,,,0.02,WUHU216DAVISWMX,2013-05-23 11:03:00,
2013-05-23 07:08:00,55.7,55.7,29.97,ENE,66,0.0,1.0,100,0.01,,,0.02,WUHU216DAVISWMX,2013-05-23 11:08:00,
2013-05-23 07:13:00,55.8,55.8,29.97,ENE,66,0.0,1.0,100,0.01,,,0.02,WUHU216DAVISWMX,2013-05-23 11:13:00,
2013-05-23 07:18:00,55.9,55.9,29.98,ENE,66,0.0,1.0,100,0.01,,,0.02,WUHU216DAVISWMX,2013-05-23 11:18:00,
2013-05-23 07:23:00,56.1,56.1,29.98,ENE,66,0.0,0.0,100,0.01,,,0.02,WUHU216DAVISWMX,2013-05-23 11:23:00,
2013-05-23 07:28:00,56.0,56.0,29.98,ENE,66,0.0,0.0,100,0.01,,,0.02,WUHU216DAVISWMX,2013-05-23 11:28:00,
2013-05-23 07:33:00,56.2,56.2,29.99,ENE,66,0.0,0.0,100,0.01,,,0.02,WUHU216DAVISWMX,2013-05-23 11:33:00,
2013-05-23 07:38:00,56.2,56.2,29.98,ENE,66,0.0,0.0,100,0.01,,,0.02,WUHU216DAVISWMX,2013-05-23 11:38:00,
2013-05-23 07:43:00,56.2,56.2,29.98,ENE,66,0.0,0.0,100,0.01,,,0.02,WUHU216DAVISWMX,2013-05-23 11:43:00,
2013-05-23 07:48:00,56.3,56.3,29.98,ENE,66,0.0,0.0,100,0.01,,,0.02,WUHU216DAVISWMX,2013-05-23 11:48:00,
2013-05-23 07:53:00,56.3,56.3,29.98,ENE,66,0.0,0.0,100,0.01,,,0.02,WUHU216DAVISWMX,2013-05-23 11:53:00,
2013-05-23 07:58:00,56.3,56.3,29.98,ENE,66,0.0,1.0,100,0.00,,,0.02,WUHU216DAVISWMX,2013-05-23 11:58:00,
2013-05-23 08:03:00,56.3,56.3,29.98,ENE,66,0.0,1.0,100,0.00,,,0.02,WUHU216DAVISWMX,2013-05-23 12:03:00,
2013-05-23 08:08:00,56.3,56.3,29.98,ENE,66,0.0,0.0,100,0.00,,,0.02,WUHU216DAVISWMX,2013-05-23 12:08:00,
2013-05-23 08:13:00,56.4,56.4,29.98,ENE,66,0.0,0.0,100,0.00,,,0.02,WUHU216DAVISWMX,2013-05-23 12:13:00,
2013-05-23 08:18:00,56.4,56.4,29.98,ENE,66,0.0,0.0,100,0.00,,,0.02,WUHU216DAVISWMX,2013-05-23 12:18:00,
2013-05-23 08:23:00,56.5,56.5,29.98,ENE,66,0.0,0.0,100,0.00,,,0.02,WUHU216DAVISWMX,2013-05-23 12:23:00,
2013-05-23 08:28:00,56.5,56.5,29.98,SE,136,0.0,0.0,100,0.00,,,0.02,WUHU216DAVISWMX,2013-05-23 12:28:00,
2013-05-23 08:33:00,56.5,56.5,29.98,SE,136,0.0,0.0,100,0.00,,,0.02,WUHU216DAVISWMX,2013-05-23 12:33:00,
2013-05-23 08:38:00,56.6,56.6,29.98,SE,136,0.0,0.0,100,0.00,,,0.02,WUHU216DAVISWMX,2013-05-23 12:38:00,
2013-05-23 08:43:00,56.7,56.7,29.98,SE,136,0.0,0.0,100,0.00,,,0.02,WUHU216DAVISWMX,2013-05-23 12:43:00,
2013-05-23 08:49:00,56.7,56.7,29.98,SE,136,0.0,0.0,100,0.00,,,0.02,WUHU216DAVISWMX,2013-05-23 12:49:00,
2013-05-23 08:54:00,56.8,56.8,29.98,SE,136,0.0,0.0,100,0.00,,,0.02,WUHU216DAVISWMX,2013-05-23 12:54:00,
2013-05-23 08:59:00,56.7,56.7,29.98,SE,136,0.0,0.0,100,0.00,,,0.02,WUHU216DAVISWMX,2013-05-23 12:59:00,
2013-05-23 09:04:00,56.7,56.7,29.98,SE,136,0.0,0.0,100,0.00,,,0.02,WUHU216DAVISWMX,2013-05-23 13:04:00,
2013-05-23 09:09:00,56.7,56.7,29.98,SE,136,0.0,0.0,100,0.00,,,0.02,WUHU216DAVISWMX,2013-05-23 13:09:00,
2013-05-23 09:14:00,56.7,56.7,29.98,SE,136,0.0,0.0,100,0.00,,,0.02,WUHU216DAVISWMX,2013-05-23 13:14:00,
2013-05-23 09:19:00,57.0,57.0,29.98,SE,136,0.0,0.0,100,0.00,,,0.02,WUHU216DAVISWMX,2013-05-23 13:19:00,
2013-05-23 09:24:00,57.1,57.1,29.98,SE,136,0.0,0.0,100,0.00,,,0.02,WUHU216DAVISWMX,2013-05-23 13:24:00,
2013-05-23 09:29:00,57.2,57.2,29.98,SE,136,0.0,1.0,100,0.00,,,0.02,WUHU216DAVISWMX,2013-05-23 13:29:00,
2013-05-23 09:34:00,57.2,57.2,29.98,SE,136,0.0,1.0,100,0.00,,,0.02,WUHU216DAVISWMX,2013-05-23 13:34:00,
2013-05-23 09:39:00,57.2,57.2,29.98,SE,136,0.0,0.0,100,0.00,,,0.02,WUHU216DAVISWMX,2013-05-23 13:39:00,
2013-05-23 09:44:00,57.3,57.3,29.98,SE,136,0.0,0.0,100,0.00,,,0.02,WUHU216DAVISWMX,2013-05-23 13:44:00,
2013-05-23 09:49:00,57.4,57.4,29.98,SE,136,0.0,1.0,100,0.00,,,0.02,WUHU216DAVISWMX,2013-05-23 13:49:00,
2013-05-23 09:54:00,57.6,57.6,29.98,SE,136,0.0,1.0,100,0.00,,,0.02,WUHU216DAVISWMX,2013-05-23 13:54:00,
2013-05-23 09:59:00,57.5,57.5,29.98,SE,136,0.0,0.0,100,0.02,,,0.04,WUHU216DAVISWMX,2013-05-23 13:59:00,
2013-05-23 10:04:00,57.7,57.7,29.98,SE,136,0.0,0.0,100,0.04,,,0.06,WUHU216DAVISWMX,2013-05-23 14:04:00,
2013-05-23 10:09:00,57.6,57.6,29.98,SE,136,0.0,0.0,100,0.06,,,0.08,WUHU216DAVISWMX,2013-05-23 14:09:00,
2013-05-23 10:14:00,57.8,57.8,29.97,SE,136,0.0,0.0,100,0.07,,,0.09,WUHU216DAVISWMX,2013-05-23 14:14:00,
2013-05-23 10:19:00,57.7,57.7,29.97,SE,136,0.0,0.0,100,0.09,,,0.11,WUHU216DAVISWMX,2013-05-23 14:19:00,
2013-05-23 10:24:00,57.9,57.9,29.97,SE,136,0.0,0.0,100,0.10,,,0.12,WUHU216DAVISWMX,2013-05-23 14:24:00,
2013-05-23 10:29:00,57.8,57.8,29.98,SE,136,0.0,0.0,100,0.12,,,0.14,WUHU216DAVISWMX,2013-05-23 14:29:00,
2013-05-23 10:34:00,58.0,58.0,29.97,SE,136,2.0,2.0,100,0.18,,,0.20,WUHU216DAVISWMX,2013-05-23 14:34:00,
2013-05-23 10:39:00,58.1,58.1,29.96,SE,146,0.0,2.0,100,0.21,,,0.23,WUHU216DAVISWMX,2013-05-23 14:39:00,
2013-05-23 10:44:00,58.2,58.2,29.96,SE,146,0.0,2.0,100,0.22,,,0.24,WUHU216DAVISWMX,2013-05-23 14:44:00,
2013-05-23 10:49:00,58.8,58.8,29.96,SE,146,0.0,0.0,100,0.22,,,0.24,WUHU216DAVISWMX,2013-05-23 14:49:00,
2013-05-23 10:54:00,59.3,59.3,29.96,SE,146,0.0,1.0,100,0.22,,,0.24,WUHU216DAVISWMX,2013-05-23 14:54:00,
2013-05-23 10:59:00,59.7,59.7,29.96,SE,146,0.0,2.0,100,0.20,,,0.24,WUHU216DAVISWMX,2013-05-23 14:59:00,
2013-05-23 11:04:00,60.0,60.0,29.96,SE,146,0.0,2.0,100,0.18,,,0.24,WUHU216DAVISWMX,2013-05-23 15:04:00,
2013-05-23 11:09:00,60.8,60.8,29.96,SE,146,0.0,0.0,100,0.16,,,0.24,WUHU216DAVISWMX,2013-05-23 15:09:00,
2013-05-23 11:14:00,61.6,61.6,29.96,WSW,248,0.0,2.0,100,0.15,,,0.24,WUHU216DAVISWMX,2013-05-23 15:14:00,
2013-05-23 11:19:00,62.3,62.3,29.96,WSW,248,0.0,2.0,100,0.13,,,0.24,WUHU216DAVISWMX,2013-05-23 15:19:00,
2013-05-23 11:24:00,63.0,63.0,29.96,SSW,192,0.0,1.0,100,0.12,,,0.24,WUHU216DAVISWMX,2013-05-23 15:24:00,
2013-05-23 11:29:00,63.9,63.9,29.96,South,191,0.0,3.0,100,0.09,,,0.24,WUHU216DAVISWMX,2013-05-23 15:29:00,
2013-05-23 11:34:00,64.7,64.7,29.95,WSW,253,2.0,5.0,100,0.03,,,0.24,WUHU216DAVISWMX,2013-05-23 15:34:00,
2013-05-23 11:39:00,65.4,65.4,29.95,South,170,0.0,5.0,100,0.01,,,0.24,WUHU216DAVISWMX,2013-05-23 15:39:00,
2013-05-23 11:44:00,66.0,66.0,29.95,SW,233,3.0,5.0,100,0.00,,,0.24,WUHU216DAVISWMX,2013-05-23 15:44:00,
2013-05-23 11:49:00,66.6,66.6,29.95,ENE,74,0.0,3.0,100,0.00,,,0.24,WUHU216DAVISWMX,2013-05-23 15:49:00,
2013-05-23 11:54:00,67.2,67.2,29.95,SW,222,0.0,3.0,100,0.00,,,0.24,WUHU216DAVISWMX,2013-05-23 15:54:00,
2013-05-23 11:59:00,67.2,67.2,29.94,ESE,109,0.0,3.0,100,0.00,,,0.24,WUHU216DAVISWMX,2013-05-23 15:59:00,
2013-05-23 12:04:00,67.8,67.8,29.94,ESE,108,0.0,1.0,100,0.00,,,0.24,WUHU216DAVISWMX,2013-05-23 16:04:00,
2013-05-23 12:09:00,68.8,68.8,29.94,SSW,192,0.0,1.0,100,0.00,,,0.24,WUHU216DAVISWMX,2013-05-23 16:09:00,
2013-05-23 12:14:00,69.1,69.1,29.94,NW,323,0.0,1.0,100,0.00,,,0.24,WUHU216DAVISWMX,2013-05-23 16:14:00,
2013-05-23 12:19:00,69.9,69.9,29.94,SW,221,0.0,2.0,100,0.00,,,0.24,WUHU216DAVISWMX,2013-05-23 16:19:00,
2013-05-23 12:24:00,70.4,70.4,29.94,SW,223,0.0,2.0,100,0.00,,,0.24,WUHU216DAVISWMX,2013-05-23 16:24:00,
2013-05-23 12:29:00,70.7,70.7,29.94,West,266,0.0,4.0,100,0.00,,,0.24,WUHU216DAVISWMX,2013-05-23 16:29:00,
2013-05-23 12:34:00,70.6,70.6,29.94,West,277,1.0,4.0,100,0.00,,,0.24,WUHU216DAVISWMX,2013-05-23 16:34:00,
2013-05-23 12:39:00,70.8,70.8,29.94,SSW,211,4.0,4.0,100,0.00,,,0.24,WUHU216DAVISWMX,2013-05-23 16:39:00,
2013-05-23 12:44:00,71.0,71.0,29.94,WNW,302,1.0,4.0,100,0.00,,,0.24,WUHU216DAVISWMX,2013-05-23 16:44:00,
2013-05-23 12:49:00,71.2,71.2,29.93,WNW,302,0.0,3.0,100,0.00,,,0.24,WUHU216DAVISWMX,2013-05-23 16:49:00,
2013-05-23 12:54:00,71.2,71.2,29.93,SW,214,0.0,4.0,100,0.00,,,0.24,WUHU216DAVISWMX,2013-05-23 16:54:00,
2013-05-23 12:59:00,71.4,71.4,29.93,SW,214,0.0,4.0,100,0.00,,,0.24,WUHU216DAVISWMX,2013-05-23 16:59:00,
2013-05-23 13:04:00,71.5,71.5,29.92,SW,217,1.0,4.0,100,0.00,,,0.24,WUHU216DAVISWMX,2013-05-23 17:04:00,
2013-05-23 13:09:00,71.6,71.6,29.92,West,269,0.0,4.0,100,0.00,,,0.24,WUHU216DAVISWMX,2013-05-23 17:09:00,
2013-05-23 13:14:00,71.7,71.7,29.92,West,264,1.0,2.0,100,0.00,,,0.24,WUHU216DAVISWMX,2013-05-23 17:14:00,
2013-05-23 13:19:00,71.8,71.8,29.92,WNW,283,0.0,2.0,100,0.00,,,0.24,WUHU216DAVISWMX,2013-05-23 17:19:00,
2013-05-23 13:24:00,72.0,72.0,29.91,West,260,0.0,4.0,100,0.00,,,0.24,WUHU216DAVISWMX,2013-05-23 17:24:00,
2013-05-23 13:29:00,72.4,72.4,29.91,ESE,102,0.0,4.0,100,0.00,,,0.24,WUHU216DAVISWMX,2013-05-23 17:29:00,
2013-05-23 13:34:00,73.0,73.0,29.91,WSW,241,1.0,7.0,100,0.00,,,0.24,WUHU216DAVISWMX,2013-05-23 17:34:00,
2013-05-23 13:39:00,73.7,73.7,29.91,West,259,2.0,7.0,100,0.00,,,0.24,WUHU216DAVISWMX,2013-05-23 17:39:00,
2013-05-23 13:44:00,74.4,73.8,29.90,WSW,253,0.0,5.0,98,0.00,,,0.24,WUHU216DAVISWMX,2013-05-23 17:44:00,
2013-05-23 13:49:00,74.4,72.8,29.91,SSW,201,1.0,4.0,95,0.00,,,0.24,WUHU216DAVISWMX,2013-05-23 17:49:00,
2013-05-23 13:54:00,74.1,72.5,29.91,SW,228,3.0,5.0,95,0.00,,,0.24,WUHU216DAVISWMX,2013-05-23 17:54:00,
2013-05-23 13:59:00,74.2,73.0,29.91,South,181,0.0,5.0,96,0.00,,,0.24,WUHU216DAVISWMX,2013-05-23 17:59:00,
2013-05-23 14:04:00,74.1,72.9,29.91,SSW,211,2.0,5.0,96,0.00,,,0.24,WUHU216DAVISWMX,2013-05-23 18:04:00,
2013-05-23 14:09:00,74.1,72.9,29.91,SE,138,0.0,6.0,96,0.00,,,0.24,WUHU216DAVISWMX,2013-05-23 18:09:00,
2013-05-23 14:14:00,73.7,72.8,29.91,SW,222,2.0,6.0,97,0.00,,,0.24,WUHU216DAVISWMX,2013-05-23 18:14:00,
2013-05-23 14:19:00,73.0,72.4,29.91,WSW,237,0.0,5.0,98,0.01,,,0.25,WUHU216DAVISWMX,2013-05-23 18:19:00,
2013-05-23 14:24:00,72.6,72.3,29.91,West,261,0.0,3.0,99,0.02,,,0.26,WUHU216DAVISWMX,2013-05-23 18:24:00,
2013-05-23 14:29:00,72.3,72.3,29.91,West,260,0.0,3.0,100,0.02,,,0.26,WUHU216DAVISWMX,2013-05-23 18:29:00,
2013-05-23 14:34:00,72.3,72.3,29.91,SSE,160,3.0,3.0,100,0.02,,,0.26,WUHU216DAVISWMX,2013-05-23 18:34:00,
2013-05-23 14:39:00,72.5,72.5,29.91,WSW,245,4.0,9.0,100,0.02,,,0.26,WUHU216DAVISWMX,2013-05-23 18:39:00,
2013-05-23 14:44:00,72.5,72.5,29.91,West,261,5.0,9.0,100,0.02,,,0.26,WUHU216DAVISWMX,2013-05-23 18:44:00,
2013-05-23 14:49:00,72.7,72.7,29.92,WNW,292,1.0,5.0,100,0.02,,,0.26,WUHU216DAVISWMX,2013-05-23 18:49:00,
2013-05-23 14:54:00,72.6,72.6,29.92,WSW,253,1.0,4.0,100,0.02,,,0.26,WUHU216DAVISWMX,2013-05-23 18:54:00,
2013-05-23 14:59:00,72.6,72.6,29.92,WNW,301,0.0,5.0,100,0.02,,,0.26,WUHU216DAVISWMX,2013-05-23 18:59:00,
2013-05-23 15:04:00,72.5,72.2,29.92,ENE,73,1.0,5.0,99,0.02,,,0.26,WUHU216DAVISWMX,2013-05-23 19:04:00,
2013-05-23 15:09:00,72.6,72.3,29.92,WSW,250,2.0,5.0,99,0.02,,,0.26,WUHU216DAVISWMX,2013-05-23 19:09:00,
2013-05-23 15:14:00,72.5,72.2,29.92,SW,228,3.0,7.0,99,0.02,,,0.26,WUHU216DAVISWMX,2013-05-23 19:14:00,
2013-05-23 15:19:00,72.4,72.1,29.92,SW,215,0.0,7.0,99,0.01,,,0.26,WUHU216DAVISWMX,2013-05-23 19:19:00,
2013-05-23 15:24:00,72.2,71.6,29.92,SW,235,1.0,6.0,98,0.00,,,0.26,WUHU216DAVISWMX,2013-05-23 19:24:00,
2013-05-23 15:29:00,72.0,71.7,29.92,West,267,1.0,6.0,99,0.00,,,0.26,WUHU216DAVISWMX,2013-05-23 19:29:00,
2013-05-23 15:34:00,71.9,71.3,29.92,SE,132,3.0,7.0,98,0.00,,,0.26,WUHU216DAVISWMX,2013-05-23 19:34:00,
2013-05-23 15:39:00,71.8,71.2,29.92,WSW,250,2.0,7.0,98,0.00,,,0.26,WUHU216DAVISWMX,2013-05-23 19:39:00,
2013-05-23 15:44:00,71.7,70.8,29.91,WSW,243,2.0,7.0,97,0.00,,,0.26,WUHU216DAVISWMX,2013-05-23 19:44:00,
2013-05-23 15:49:00,71.4,70.8,29.91,West,273,0.0,7.0,98,0.00,,,0.26,WUHU216DAVISWMX,2013-05-23 19:49:00,
2013-05-23 15:54:00,71.5,70.9,29.91,ESE,112,0.0,6.0,98,0.00,,,0.26,WUHU216DAVISWMX,2013-05-23 19:54:00,
2013-05-23 15:59:00,71.5,71.2,29.92,WSW,239,1.0,6.0,99,0.00,,,0.26,WUHU216DAVISWMX,2013-05-23 19:59:00,
2013-05-23 16:04:00,71.3,70.7,29.92,SW,235,2.0,4.0,98,0.00,,,0.26,WUHU216DAVISWMX,2013-05-23 20:04:00,
2013-05-23 16:09:00,71.4,70.8,29.91,SW,235,0.0,4.0,98,0.00,,,0.26,WUHU216DAVISWMX,2013-05-23 20:09:00,
2013-05-23 16:14:00,71.4,71.1,29.91,WSW,249,1.0,2.0,99,0.00,,,0.26,WUHU216DAVISWMX,2013-05-23 20:14:00,
2013-05-23 16:19:00,71.4,71.1,29.91,WSW,248,0.0,3.0,99,0.00,,,0.26,WUHU216DAVISWMX,2013-05-23 20:19:00,
2013-05-23 16:24:00,71.4,71.1,29.91,West,263,0.0,4.0,99,0.00,,,0.26,WUHU216DAVISWMX,2013-05-23 20:24:00,
2013-05-23 16:29:00,71.3,71.3,29.91,WSW,258,0.0,4.0,100,0.00,,,0.26,WUHU216DAVISWMX,2013-05-23 20:29:00,
2013-05-23 16:34:00,71.2,71.2,29.90,WSW,251,0.0,2.0,100,0.00,,,0.26,WUHU216DAVISWMX,2013-05-23 20:34:00,
2013-05-23 16:39:00,71.2,71.2,29.91,WSW,251,0.0,1.0,100,0.00,,,0.26,WUHU216DAVISWMX,2013-05-23 20:39:00,
2013-05-23 16:44:00,70.9,70.9,29.91,WSW,251,0.0,2.0,100,0.00,,,0.26,WUHU216DAVISWMX,2013-05-23 20:44:00,
2013-05-23 16:49:00,71.0,71.0,29.91,WSW,250,0.0,2.0,100,0.01,,,0.27,WUHU216DAVISWMX,2013-05-23 20:49:00,
2013-05-23 16:54:00,70.6,70.6,29.90,WSW,250,0.0,2.0,100,0.01,,,0.27,WUHU216DAVISWMX,2013-05-23 20:54:00,
2013-05-23 16:59:00,70.5,70.5,29.91,WSW,250,0.0,0.0,100,0.01,,,0.27,WUHU216DAVISWMX,2013-05-23 20:59:00,
2013-05-23 17:04:00,70.4,70.4,29.91,WSW,250,0.0,0.0,100,0.02,,,0.28,WUHU216DAVISWMX,2013-05-23 21:04:00,
2013-05-23 17:09:00,70.6,70.6,29.90,WSW,250,0.0,0.0,100,0.04,,,0.30,WUHU216DAVISWMX,2013-05-23 21:09:00,
2013-05-23 17:14:00,70.3,70.3,29.90,WSW,251,0.0,0.0,100,0.05,,,0.31,WUHU216DAVISWMX,2013-05-23 21:14:00,
2013-05-23 17:19:00,70.3,70.3,29.89,WSW,250,0.0,0.0,100,0.07,,,0.33,WUHU216DAVISWMX,2013-05-23 21:19:00,
2013-05-23 17:24:00,70.0,70.0,29.90,WSW,250,1.0,1.0,100,0.07,,,0.33,WUHU216DAVISWMX,2013-05-23 21:24:00,
2013-05-23 17:29:00,70.2,70.2,29.90,WSW,250,0.0,1.0,100,0.08,,,0.34,WUHU216DAVISWMX,2013-05-23 21:29:00,
2013-05-23 17:34:00,69.9,69.9,29.90,WSW,251,0.0,0.0,100,0.09,,,0.35,WUHU216DAVISWMX,2013-05-23 21:34:00,
2013-05-23 17:39:00,69.9,69.9,29.90,WSW,250,0.0,1.0,100,0.11,,,0.37,WUHU216DAVISWMX,2013-05-23 21:39:00,
2013-05-23 17:44:00,69.8,69.8,29.90,WSW,251,0.0,1.0,100,0.14,,,0.40,WUHU216DAVISWMX,2013-05-23 21:44:00,
2013-05-23 17:49:00,69.7,69.7,29.90,WSW,258,0.0,3.0,100,0.16,,,0.43,WUHU216DAVISWMX,2013-05-23 21:49:00,
2013-05-23 17:54:00,69.6,69.6,29.90,West,270,0.0,5.0,100,0.19,,,0.46,WUHU216DAVISWMX,2013-05-23 21:54:00,
2013-05-23 17:59:00,69.3,69.3,29.90,WSW,246,0.0,5.0,100,0.20,,,0.47,WUHU216DAVISWMX,2013-05-23 21:59:00,
2013-05-23 18:05:00,69.6,69.6,29.90,SW,230,0.0,3.0,100,0.20,,,0.49,WUHU216DAVISWMX,2013-05-23 22:05:00,
2013-05-23 18:10:00,69.4,69.4,29.90,West,271,2.0,8.0,100,0.21,,,0.51,WUHU216DAVISWMX,2013-05-23 22:10:00,
2013-05-23 18:15:00,69.0,69.0,29.91,North,6,0.0,9.0,100,0.21,,,0.53,WUHU216DAVISWMX,2013-05-23 22:15:00,
2013-05-23 18:20:00,69.1,69.1,29.91,West,260,2.0,9.0,100,0.22,,,0.55,WUHU216DAVISWMX,2013-05-23 22:20:00,
2013-05-23 18:25:00,68.9,68.9,29.91,SW,232,1.0,7.0,100,0.23,,,0.56,WUHU216DAVISWMX,2013-05-23 22:25:00,
2013-05-23 18:30:00,68.8,68.8,29.91,West,275,1.0,6.0,100,0.24,,,0.58,WUHU216DAVISWMX,2013-05-23 22:30:00,
2013-05-23 18:35:00,68.8,68.8,29.91,WSW,258,0.0,4.0,100,0.24,,,0.59,WUHU216DAVISWMX,2013-05-23 22:35:00,
2013-05-23 18:40:00,68.8,68.8,29.90,WSW,258,0.0,4.0,100,0.22,,,0.59,WUHU216DAVISWMX,2013-05-23 22:40:00,
2013-05-23 18:45:00,68.5,68.5,29.91,WNW,303,2.0,4.0,100,0.19,,,0.59,WUHU216DAVISWMX,2013-05-23 22:45:00,
2013-05-23 18:50:00,68.4,68.4,29.91,WSW,239,0.0,4.0,100,0.16,,,0.59,WUHU216DAVISWMX,2013-05-23 22:50:00,
2013-05-23 18:55:00,68.5,68.5,29.91,NNW,331,1.0,4.0,100,0.14,,,0.60,WUHU216DAVISWMX,2013-05-23 22:55:00,
2013-05-23 19:00:00,68.4,68.4,29.91,WSW,258,0.0,4.0,100,0.14,,,0.61,WUHU216DAVISWMX,2013-05-23 23:00:00,
2013-05-23 19:05:00,68.2,68.2,29.91,WSW,258,0.0,4.0,100,0.11,,,0.61,WUHU216DAVISWMX,2013-05-23 23:05:00,
2013-05-23 19:10:00,68.1,68.1,29.91,WSW,258,0.0,4.0,100,0.09,,,0.61,WUHU216DAVISWMX,2013-05-23 23:10:00,
2013-05-23 19:15:00,68.0,68.0,29.91,SW,229,0.0,3.0,100,0.08,,,0.61,WUHU216DAVISWMX,2013-05-23 23:15:00,
2013-05-23 19:20:00,67.7,67.7,29.92,SW,229,0.0,3.0,100,0.06,,,0.61,WUHU216DAVISWMX,2013-05-23 23:20:00,
2013-05-23 19:25:00,67.8,67.8,29.92,SW,230,0.0,1.0,100,0.05,,,0.62,WUHU216DAVISWMX,2013-05-23 23:25:00,
2013-05-23 19:30:00,67.7,67.7,29.91,NW,317,0.0,1.0,100,0.05,,,0.63,WUHU216DAVISWMX,2013-05-23 23:30:00,
2013-05-23 19:35:00,67.3,67.3,29.91,NW,317,0.0,1.0,100,0.04,,,0.63,WUHU216DAVISWMX,2013-05-23 23:35:00,
2013-05-23 19:40:00,67.6,67.6,29.91,NW,317,0.0,1.0,100,0.04,,,0.63,WUHU216DAVISWMX,2013-05-23 23:40:00,
2013-05-23 19:45:00,67.5,67.5,29.91,NW,317,0.0,2.0,100,0.04,,,0.63,WUHU216DAVISWMX,2013-05-23 23:45:00,
2013-05-23 19:50:00,67.1,67.1,29.91,NW,317,0.0,2.0,100,0.03,,,0.63,WUHU216DAVISWMX,2013-05-23 23:50:00,
2013-05-23 19:55:00,67.2,67.2,29.91,NW,317,0.0,0.0,100,0.03,,,0.63,WUHU216DAVISWMX,2013-05-23 23:55:00,
2013-05-23 20:00:00,67.3,67.3,29.91,NW,317,0.0,0.0,100,0.02,,,0.63,WUHU216DAVISWMX,2013-05-24 00:00:00,
2013-05-23 20:05:00,67.2,67.2,29.90,NW,317,0.0,1.0,100,0.02,,,0.63,WUHU216DAVISWMX,2013-05-24 00:05:00,
2013-05-23 20:10:00,67.2,67.2,29.90,NW,317,0.0,1.0,100,0.02,,,0.63,WUHU216DAVISWMX,2013-05-24 00:10:00,
2013-05-23 20:15:00,67.1,67.1,29.90,NW,317,0.0,0.0,100,0.02,,,0.63,WUHU216DAVISWMX,2013-05-24 00:15:00,
2013-05-23 20:20:00,66.8,66.8,29.90,NW,317,0.0,0.0,100,0.02,,,0.63,WUHU216DAVISWMX,2013-05-24 00:20:00,
2013-05-23 20:25:00,67.0,67.0,29.90,NW,317,0.0,0.0,100,0.01,,,0.63,WUHU216DAVISWMX,2013-05-24 00:25:00,
2013-05-23 20:30:00,67.0,67.0,29.90,NW,317,0.0,1.0,100,0.00,,,0.63,WUHU216DAVISWMX,2013-05-24 00:30:00,
2013-05-23 20:35:00,66.9,66.9,29.90,NW,317,0.0,1.0,100,0.00,,,0.63,WUHU216DAVISWMX,2013-05-24 00:35:00,
2013-05-23 20:40:00,66.9,66.9,29.89,West,280,1.0,3.0,100,0.00,,,0.63,WUHU216DAVISWMX,2013-05-24 00:40:00,
2013-05-23 20:45:00,66.9,66.9,29.90,NNW,348,0.0,3.0,100,0.00,,,0.63,WUHU216DAVISWMX,2013-05-24 00:45:00,
2013-05-23 20:50:00,67.0,67.0,29.90,SW,227,4.0,4.0,100,0.00,,,0.63,WUHU216DAVISWMX,2013-05-24 00:50:00,
2013-05-23 20:55:00,67.0,67.0,29.89,WSW,244,0.0,4.0,100,0.00,,,0.63,WUHU216DAVISWMX,2013-05-24 00:55:00,
2013-05-23 21:00:00,66.9,66.9,29.89,WSW,248,1.0,3.0,100,0.00,,,0.63,WUHU216DAVISWMX,2013-05-24 01:00:00,
2013-05-23 21:05:00,67.0,67.0,29.89,WNW,299,1.0,4.0,100,0.00,,,0.63,WUHU216DAVISWMX,2013-05-24 01:05:00,
2013-05-23 21:10:00,66.9,66.9,29.89,WNW,290,0.0,4.0,100,0.00,,,0.63,WUHU216DAVISWMX,2013-05-24 01:10:00,
2013-05-23 21:15:00,66.9,66.9,29.89,West,264,0.0,4.0,100,0.00,,,0.63,WUHU216DAVISWMX,2013-05-24 01:15:00,
2013-05-23 21:20:00,67.0,67.0,29.89,WSW,258,0.0,2.0,100,0.00,,,0.63,WUHU216DAVISWMX,2013-05-24 01:20:00,
2013-05-23 21:25:00,66.8,66.8,29.89,West,266,2.0,2.0,100,0.00,,,0.63,WUHU216DAVISWMX,2013-05-24 01:25:00,
2013-05-23 21:30:00,66.7,66.7,29.89,SW,233,0.0,2.0,100,0.00,,,0.63,WUHU216DAVISWMX,2013-05-24 01:30:00,
2013-05-23 21:35:00,66.6,66.6,29.89,SE,135,0.0,2.0,100,0.00,,,0.63,WUHU216DAVISWMX,2013-05-24 01:35:00,
2013-05-23 21:40:00,66.8,66.8,29.89,West,278,0.0,3.0,100,0.00,,,0.63,WUHU216DAVISWMX,2013-05-24 01:40:00,
2013-05-23 21:45:00,66.7,66.7,29.89,West,275,0.0,3.0,100,0.00,,,0.63,WUHU216DAVISWMX,2013-05-24 01:45:00,
2013-05-23 21:50:00,66.8,66.8,29.89,West,275,0.0,2.0,100,0.00,,,0.63,WUHU216DAVISWMX,2013-05-24 01:50:00,
2013-05-23 21:55:00,66.7,66.7,29.89,SSW,202,0.0,2.0,100,0.00,,,0.63,WUHU216DAVISWMX,2013-05-24 01:55:00,
2013-05-23 22:00:00,66.9,66.9,29.89,South,189,0.0,3.0,100,0.00,,,0.63,WUHU216DAVISWMX,2013-05-24 02:00:00,
2013-05-23 22:05:00,66.5,66.5,29.89,South,189,0.0,3.0,100,0.00,,,0.63,WUHU216DAVISWMX,2013-05-24 02:05:00,
2013-05-23 22:10:00,66.5,66.5,29.88,South,189,0.0,0.0,100,0.00,,,0.63,WUHU216DAVISWMX,2013-05-24 02:10:00,
2013-05-23 22:15:00,66.8,66.8,29.89,South,189,0.0,0.0,100,0.00,,,0.63,WUHU216DAVISWMX,2013-05-24 02:15:00,
2013-05-23 22:20:00,66.5,66.5,29.88,South,189,0.0,2.0,100,0.00,,,0.63,WUHU216DAVISWMX,2013-05-24 02:20:00,
2013-05-23 22:25:00,66.7,66.7,29.88,WSW,238,6.0,6.0,100,0.02,,,0.65,WUHU216DAVISWMX,2013-05-24 02:25:00,
2013-05-23 22:30:00,66.6,66.6,29.88,WSW,241,0.0,6.0,100,0.05,,,0.68,WUHU216DAVISWMX,2013-05-24 02:30:00,
2013-05-23 22:35:00,66.4,66.4,29.88,WSW,241,0.0,4.0,100,0.05,,,0.68,WUHU216DAVISWMX,2013-05-24 02:35:00,
2013-05-23 22:40:00,66.4,66.4,29.88,WSW,241,0.0,1.0,100,0.05,,,0.68,WUHU216DAVISWMX,2013-05-24 02:40:00,
2013-05-23 22:45:00,66.3,66.3,29.87,East,99,0.0,2.0,100,0.06,,,0.69,WUHU216DAVISWMX,2013-05-24 02:45:00,
2013-05-23 22:50:00,66.1,66.1,29.87,West,268,0.0,3.0,100,0.08,,,0.71,WUHU216DAVISWMX,2013-05-24 02:50:00,
2013-05-23 22:55:00,66.3,66.3,29.87,West,270,0.0,3.0,100,0.09,,,0.72,WUHU216DAVISWMX,2013-05-24 02:55:00,
2013-05-23 23:00:00,66.1,66.1,29.87,West,273,0.0,4.0,100,0.10,,,0.73,WUHU216DAVISWMX,2013-05-24 03:00:00,
2013-05-23 23:05:00,66.3,66.3,29.86,South,191,0.0,6.0,100,0.11,,,0.74,WUHU216DAVISWMX,2013-05-24 03:05:00,
2013-05-23 23:10:00,65.9,65.9,29.86,South,191,0.0,6.0,100,0.12,,,0.75,WUHU216DAVISWMX,2013-05-24 03:10:00,
2013-05-23 23:15:00,66.2,66.2,29.86,South,191,1.0,1.0,100,0.12,,,0.75,WUHU216DAVISWMX,2013-05-24 03:15:00,
2013-05-23 23:20:00,65.7,65.7,29.86,SE,132,0.0,4.0,100,0.12,,,0.75,WUHU216DAVISWMX,2013-05-24 03:20:00,
2013-05-23 23:25:00,65.9,65.9,29.86,SE,138,2.0,4.0,100,0.10,,,0.75,WUHU216DAVISWMX,2013-05-24 03:25:00,
2013-05-23 23:30:00,66.0,66.0,29.86,WSW,242,1.0,4.0,100,0.08,,,0.76,WUHU216DAVISWMX,2013-05-24 03:30:00,
2013-05-23 23:35:00,65.6,65.6,29.86,South,191,1.0,4.0,100,0.08,,,0.76,WUHU216DAVISWMX,2013-05-24 03:35:00,
2013-05-23 23:40:00,65.8,65.8,29.86,SSW,198,1.0,4.0,100,0.08,,,0.76,WUHU216DAVISWMX,2013-05-24 03:40:00,
2013-05-23 23:45:00,65.4,65.4,29.85,ENE,57,0.0,4.0,100,0.06,,,0.76,WUHU216DAVISWMX,2013-05-24 03:45:00,
2013-05-23 23:50:00,65.7,65.7,29.86,SSW,202,0.0,2.0,100,0.05,,,0.76,WUHU216DAVISWMX,2013-05-24 03:50:00,
2013-05-23 23:55:00,65.5,65.5,29.85,ENE,58,0.0,4.0,100,0.04,,,0.76,WUHU216DAVISWMX,2013-05-24 03:55:00,